Time;durP1;ratioP1;P1;durP2;ratioP2;P2;SDS_P1;SDS_P2;PMS_P1;PMS_P2;Temp;Humidity;BMP_temperature;BMP_pressure;BME280_temperature;BME280_humidity;BME280_pressure;Samples;Min_cycle;Max_cycle;Signal;HPM_P1;HPM_P2
2022/01/20 04:01:18;;;;;;;2.20;0.70;;;4.30;86.30;;;;;;5812332;23;20533;-77
2022/01/20 04:03:45;;;;;;;2.20;0.70;;;4.30;87.10;;;;;;4994016;28;20499;-77
2022/01/20 04:06:12;;;;;;;2.20;0.80;;;4.40;86.70;;;;;;4993562;28;21014;-77
2022/01/20 04:08:41;;;;;;;2.10;0.70;;;4.60;86.90;;;;;;4993935;28;20449;-77
2022/01/20 04:11:09;;;;;;;2.20;0.70;;;4.60;85.90;;;;;;4993576;28;21000;-77
2022/01/20 04:13:36;;;;;;;2.80;0.80;;;4.70;85.80;;;;;;4995250;28;20456;-77
2022/01/20 04:16:11;;;;;;;2.47;0.80;;;4.70;85.70;;;;;;4993888;28;20552;-77
2022/01/20 04:18:40;;;;;;;2.20;0.80;;;4.90;85.70;;;;;;4993756;28;20441;-77
2022/01/20 04:21:06;;;;;;;2.23;0.80;;;5.00;85.20;;;;;;4993368;28;20886;-77
2022/01/20 04:23:33;;;;;;;2.30;0.80;;;5.10;85.10;;;;;;4993662;28;20870;-77
2022/01/20 04:26:00;;;;;;;2.20;0.70;;;5.20;84.70;;;;;;4993956;28;20461;-77
2022/01/20 04:28:26;;;;;;;2.20;0.73;;;5.20;84.40;;;;;;4993887;28;20598;-77
2022/01/20 04:30:53;;;;;;;2.30;0.83;;;5.30;84.00;;;;;;4993579;28;20898;-77
2022/01/20 04:33:20;;;;;;;2.13;0.70;;;5.20;83.60;;;;;;4993758;28;20449;-77
2022/01/20 04:35:48;;;;;;;2.20;0.80;;;5.10;84.30;;;;;;4993612;28;20452;-77
2022/01/20 04:38:14;;;;;;;2.30;0.80;;;5.10;84.00;;;;;;4993691;28;20508;-77
2022/01/20 04:40:42;;;;;;;2.20;0.80;;;5.10;83.90;;;;;;4993677;28;20492;-77
2022/01/20 04:43:09;;;;;;;2.30;0.80;;;5.10;84.00;;;;;;4996957;28;20555;-77
2022/01/20 04:45:42;;;;;;;2.70;0.80;;;4.90;84.40;;;;;;4996777;28;20858;-77
2022/01/20 04:48:25;;;;;;;2.50;1.10;;;4.80;85.00;;;;;;4997136;28;20437;-77
2022/01/20 04:59:06;;;;;;;2.50;1.00;;;5.30;84.20;;;;;;4996927;28;20775;-77
2022/01/20 05:01:33;;;;;;;2.30;0.80;;;5.20;84.30;;;;;;4996624;28;20487;-77
2022/01/20 05:04:01;;;;;;;2.50;1.17;;;5.30;84.10;;;;;;4996837;28;20444;-77
2022/01/20 05:06:30;;;;;;;2.73;0.90;;;5.20;84.40;;;;;;4996362;28;20459;-77
2022/01/20 05:08:56;;;;;;;2.20;0.80;;;5.10;84.60;;;;;;4996246;28;20943;-77
2022/01/20 05:11:23;;;;;;;2.50;0.90;;;5.00;84.70;;;;;;4996088;28;20901;-77
2022/01/20 05:13:50;;;;;;;2.27;0.70;;;4.90;84.30;;;;;;4996531;28;20598;-77
2022/01/20 05:16:16;;;;;;;2.20;0.80;;;4.70;85.70;;;;;;4997261;28;20474;-77
2022/01/20 05:18:43;;;;;;;2.37;0.80;;;4.70;85.70;;;;;;5000576;28;20511;-77
2022/01/20 05:21:10;;;;;;;2.20;0.87;;;4.60;85.80;;;;;;5002497;28;20496;-77
2022/01/20 05:23:38;;;;;;;2.23;0.77;;;4.50;86.20;;;;;;5020719;28;20476;-77
2022/01/20 05:26:04;;;;;;;2.30;0.73;;;4.50;86.50;;;;;;5011102;28;20496;-78
2022/01/20 05:28:31;;;;;;;2.27;0.87;;;4.60;86.60;;;;;;4997770;28;20449;-78
2022/01/20 05:30:59;;;;;;;2.27;0.80;;;4.60;86.00;;;;;;4996492;28;20531;-77
2022/01/20 05:33:25;;;;;;;2.20;0.80;;;4.50;86.80;;;;;;4996149;28;20957;-78
2022/01/20 05:35:52;;;;;;;2.17;0.80;;;4.60;86.60;;;;;;4996091;28;20804;-77
2022/01/20 05:38:19;;;;;;;2.20;0.80;;;4.70;86.60;;;;;;4996094;28;20500;-77
2022/01/20 05:40:47;;;;;;;2.30;0.80;;;4.80;86.30;;;;;;4996180;28;20527;-77
2022/01/20 05:43:14;;;;;;;2.30;0.90;;;5.00;85.60;;;;;;4995912;28;20461;-77
2022/01/20 05:45:41;;;;;;;2.20;0.80;;;4.60;85.60;;;;;;4995918;28;20953;-77
2022/01/20 05:48:14;;;;;;;2.30;0.90;;;4.70;86.50;;;;;;4996079;28;20444;-77
2022/01/20 05:50:40;;;;;;;2.30;0.87;;;4.90;86.20;;;;;;4995842;28;20441;-77
2022/01/20 05:53:07;;;;;;;2.23;0.80;;;4.90;85.80;;;;;;4995630;28;20495;-77
2022/01/20 05:55:35;;;;;;;2.30;0.90;;;5.00;85.50;;;;;;4995938;28;20452;-77
2022/01/20 05:58:05;;;;;;;2.20;0.80;;;4.90;85.50;;;;;;4995884;28;20467;-77
2022/01/20 06:00:32;;;;;;;2.40;0.90;;;4.70;85.70;;;;;;4995580;28;20460;-77
2022/01/20 06:05:43;;;;;;;2.20;0.80;;;4.70;86.20;;;;;;4995946;28;20410;-77
2022/01/20 06:08:10;;;;;;;2.27;0.80;;;4.70;86.30;;;;;;4995640;28;20867;-78
2022/01/20 06:10:37;;;;;;;2.20;0.70;;;4.70;86.50;;;;;;4995934;28;20944;-77
2022/01/20 06:13:05;;;;;;;2.30;0.80;;;4.70;86.50;;;;;;4995544;28;20512;-77
2022/01/20 06:15:32;;;;;;;2.30;0.70;;;4.80;86.30;;;;;;4995693;28;20449;-77
2022/01/20 06:17:59;;;;;;;2.20;0.80;;;4.60;86.20;;;;;;4995424;28;20457;-77
2022/01/20 06:20:27;;;;;;;2.27;0.80;;;4.30;86.70;;;;;;4995232;28;20499;-77
2022/01/20 06:22:53;;;;;;;2.20;0.67;;;4.40;87.60;;;;;;4995152;28;20940;-76
2022/01/20 06:25:20;;;;;;;2.20;0.80;;;4.50;87.20;;;;;;4995344;28;20449;-77
2022/01/20 06:27:47;;;;;;;2.20;0.80;;;4.50;87.40;;;;;;4995311;28;20445;-75
2022/01/20 06:30:16;;;;;;;2.10;0.60;;;4.60;86.90;;;;;;4995226;28;20453;-76
2022/01/20 06:32:43;;;;;;;2.10;0.70;;;4.70;86.60;;;;;;4994847;28;20480;-76
2022/01/20 06:35:10;;;;;;;2.30;0.80;;;4.70;86.40;;;;;;4995126;28;20507;-76
2022/01/20 06:37:37;;;;;;;2.23;0.77;;;4.60;85.90;;;;;;4995022;28;20508;-76
2022/01/20 06:40:06;;;;;;;2.20;0.73;;;4.50;85.90;;;;;;4994959;28;20512;-76
2022/01/20 06:42:33;;;;;;;2.30;0.87;;;4.50;86.20;;;;;;4995110;28;20473;-76
2022/01/20 06:44:59;;;;;;;2.30;0.70;;;4.60;86.10;;;;;;4994836;28;20499;-77
2022/01/20 06:47:27;;;;;;;2.30;0.90;;;4.70;85.60;;;;;;4994918;28;20456;-76
2022/01/20 06:49:54;;;;;;;2.30;0.70;;;4.70;85.00;;;;;;4994415;28;20941;-77
2022/01/20 06:52:21;;;;;;;2.40;0.80;;;4.60;85.50;;;;;;4994343;28;20972;-76
2022/01/20 06:54:47;;;;;;;2.43;0.87;;;4.60;85.20;;;;;;4994797;28;20574;-77
2022/01/20 06:57:14;;;;;;;2.50;1.00;;;4.50;85.80;;;;;;4994552;28;20445;-77
2022/01/20 06:59:41;;;;;;;2.30;0.80;;;4.60;85.80;;;;;;4994841;28;20448;-77
2022/01/20 07:02:07;;;;;;;2.10;0.70;;;4.60;86.10;;;;;;4994424;28;20489;-77
2022/01/20 07:04:37;;;;;;;2.20;0.80;;;4.60;85.60;;;;;;4993812;28;20457;-77
2022/01/20 07:07:04;;;;;;;2.37;0.90;;;4.60;86.00;;;;;;4994735;28;20501;-77
2022/01/20 07:09:31;;;;;;;2.23;0.83;;;4.50;86.20;;;;;;4994649;28;20453;-77
2022/01/20 07:11:58;;;;;;;2.30;0.80;;;4.60;86.10;;;;;;4995139;28;20484;-77
2022/01/20 07:14:25;;;;;;;2.27;0.80;;;4.70;86.10;;;;;;4994809;28;20446;-77
2022/01/20 07:16:52;;;;;;;2.23;0.80;;;4.90;85.70;;;;;;4994749;28;20503;-77
2022/01/20 07:19:20;;;;;;;2.60;1.00;;;4.80;85.00;;;;;;4995078;28;20512;-77
2022/01/20 07:21:48;;;;;;;2.30;0.80;;;4.80;85.30;;;;;;4994646;28;20485;-77
2022/01/20 07:24:14;;;;;;;2.17;0.73;;;4.70;85.20;;;;;;4994840;28;20507;-77
2022/01/20 07:26:42;;;;;;;2.33;0.87;;;4.70;85.30;;;;;;4994985;28;20940;-76
2022/01/20 07:29:09;;;;;;;2.30;1.00;;;4.70;85.20;;;;;;4994608;28;20453;-77
2022/01/20 07:31:36;;;;;;;2.40;0.90;;;4.70;85.30;;;;;;4994544;28;20488;-77
2022/01/20 07:34:03;;;;;;;2.23;0.80;;;4.80;84.90;;;;;;4994254;28;21004;-77
2022/01/20 07:36:29;;;;;;;2.63;1.20;;;4.80;84.90;;;;;;4994802;28;20789;-77
2022/01/20 07:38:57;;;;;;;2.37;1.03;;;4.70;84.40;;;;;;4994705;28;20452;-77
2022/01/20 07:41:24;;;;;;;2.50;1.10;;;4.50;85.20;;;;;;4994664;28;20465;-77
2022/01/20 07:43:51;;;;;;;2.60;1.07;;;4.40;85.40;;;;;;4994602;28;20449;-77
2022/01/20 07:46:18;;;;;;;2.60;1.10;;;4.30;85.80;;;;;;4994743;28;20449;-76
2022/01/20 07:48:45;;;;;;;2.50;1.00;;;4.20;86.10;;;;;;4994664;28;20452;-77
2022/01/20 07:51:11;;;;;;;2.57;1.13;;;4.30;86.30;;;;;;4994413;28;20476;-76
2022/01/20 07:53:38;;;;;;;2.40;1.00;;;4.40;85.90;;;;;;4994374;28;20535;-76
2022/01/20 07:56:07;;;;;;;2.63;1.10;;;4.50;85.50;;;;;;4994430;28;20499;-77
2022/01/20 07:58:33;;;;;;;2.40;1.13;;;4.60;85.40;;;;;;4994573;28;20495;-77
2022/01/20 08:01:00;;;;;;;3.23;1.30;;;4.80;85.10;;;;;;4994143;28;20481;-77
2022/01/20 08:03:27;;;;;;;3.20;1.37;;;5.00;84.80;;;;;;4994537;28;20835;-77
2022/01/20 08:05:54;;;;;;;2.50;1.00;;;5.40;84.10;;;;;;4993600;28;20885;-77
2022/01/20 08:08:21;;;;;;;2.50;1.00;;;5.80;82.60;;;;;;4993455;28;21010;-76
2022/01/20 08:10:47;;;;;;;2.70;1.27;;;6.10;80.60;;;;;;4994118;28;20883;-77
2022/01/20 08:13:15;;;;;;;2.67;1.00;;;6.50;79.90;;;;;;4993837;28;20901;-76
2022/01/20 08:15:44;;;;;;;2.50;1.10;;;6.90;78.50;;;;;;4995979;28;20488;-77
2022/01/20 08:18:11;;;;;;;2.50;1.20;;;7.20;76.10;;;;;;4997725;28;20508;-77
2022/01/20 08:20:38;;;;;;;2.47;1.00;;;7.30;75.30;;;;;;4997617;28;20503;-77
2022/01/20 08:23:04;;;;;;;3.20;1.10;;;7.10;75.30;;;;;;4997553;28;20498;-76
2022/01/20 08:25:31;;;;;;;2.60;1.10;;;7.10;76.10;;;;;;4997659;28;20448;-77
2022/01/20 08:27:58;;;;;;;2.63;1.20;;;7.10;76.00;;;;;;4997026;28;20805;-74
2022/01/20 08:30:26;;;;;;;3.57;1.40;;;6.90;76.60;;;;;;4997355;28;20459;-75
2022/01/20 08:32:54;;;;;;;2.47;1.10;;;6.80;76.10;;;;;;4997349;28;20491;-75
2022/01/20 08:35:23;;;;;;;3.67;1.40;;;6.50;77.50;;;;;;4997145;28;20507;-76
2022/01/20 08:37:50;;;;;;;3.07;1.20;;;6.20;77.40;;;;;;4997331;28;20449;-75
2022/01/20 08:40:22;;;;;;;2.43;1.10;;;5.70;80.00;;;;;;4997253;28;20511;-75
2022/01/20 08:42:50;;;;;;;2.97;1.43;;;5.50;80.30;;;;;;4997239;28;20488;-76
2022/01/20 08:45:21;;;;;;;4.50;2.73;;;5.30;81.40;;;;;;4997207;28;20453;-75
2022/01/20 08:47:52;;;;;;;2.63;1.07;;;5.30;81.60;;;;;;4997695;28;20468;-75
2022/01/20 08:50:19;;;;;;;3.30;1.33;;;4.90;82.00;;;;;;4997202;28;20809;-75
2022/01/20 08:52:46;;;;;;;2.70;1.53;;;4.90;82.80;;;;;;4996912;28;20489;-75
2022/01/20 08:55:14;;;;;;;3.63;1.23;;;4.80;83.20;;;;;;4996831;28;20449;-75
2022/01/20 08:57:40;;;;;;;2.93;1.43;;;4.90;82.70;;;;;;4996791;28;20549;-75
2022/01/20 09:00:10;;;;;;;3.13;1.20;;;4.70;82.60;;;;;;4996750;28;20524;-75
2022/01/20 09:02:37;;;;;;;3.10;1.33;;;4.80;83.10;;;;;;4996504;28;20555;-76
2022/01/20 09:05:06;;;;;;;3.20;1.30;;;4.80;83.20;;;;;;4996284;28;20901;-75
2022/01/20 09:07:33;;;;;;;2.50;1.00;;;5.00;83.10;;;;;;4996567;28;20557;-76
2022/01/20 09:10:04;;;;;;;7.87;2.00;;;5.00;82.40;;;;;;4996624;28;20449;-76
2022/01/20 09:15:31;;;;;;;2.87;1.27;;;5.20;82.80;;;;;;4958858;28;20434;-76
2022/01/20 09:18:00;;;;;;;2.93;1.43;;;5.20;82.00;;;;;;4996559;28;20435;-76
2022/01/20 09:20:29;;;;;;;2.40;1.00;;;5.20;82.00;;;;;;4996391;28;20449;-76
2022/01/20 09:22:56;;;;;;;3.23;1.13;;;5.20;82.00;;;;;;4996099;28;21003;-76
2022/01/20 09:25:23;;;;;;;3.80;1.37;;;5.40;82.00;;;;;;4996392;28;20480;-76
2022/01/20 09:27:51;;;;;;;2.83;1.60;;;5.40;81.20;;;;;;4995590;28;20484;-76
2022/01/20 09:30:21;;;;;;;2.47;1.20;;;5.30;80.60;;;;;;4996217;28;20441;-75
2022/01/20 09:32:57;;;;;;;3.30;1.37;;;5.30;81.10;;;;;;4996114;28;20481;-75
2022/01/20 09:35:28;;;;;;;3.00;1.27;;;5.40;81.70;;;;;;4996270;28;20520;-76
2022/01/20 09:37:55;;;;;;;3.50;1.37;;;5.50;81.40;;;;;;4996298;28;20433;-76
2022/01/20 09:40:22;;;;;;;2.80;1.20;;;5.50;81.00;;;;;;4996003;28;20449;-75
2022/01/20 09:42:49;;;;;;;2.60;1.20;;;5.50;81.50;;;;;;4995989;28;20449;-76
2022/01/20 09:45:16;;;;;;;3.20;1.30;;;5.50;81.70;;;;;;4995965;28;20507;-77
2022/01/20 09:47:44;;;;;;;3.40;1.50;;;5.50;81.60;;;;;;4996002;28;20480;-77
2022/01/20 09:50:13;;;;;;;2.90;1.30;;;5.30;81.50;;;;;;4995874;28;20536;-76
2022/01/20 09:52:41;;;;;;;3.87;1.50;;;5.40;81.70;;;;;;4995664;28;20485;-76
2022/01/20 09:55:08;;;;;;;2.70;1.40;;;5.50;81.90;;;;;;4995793;28;20449;-77
2022/01/20 09:57:35;;;;;;;2.83;1.30;;;5.70;80.60;;;;;;4995762;28;20476;-76
2022/01/20 10:00:03;;;;;;;2.40;1.00;;;5.70;80.30;;;;;;4995711;28;20457;-76
2022/01/20 10:02:30;;;;;;;3.00;1.50;;;5.70;80.40;;;;;;4995235;28;20485;-77
2022/01/20 10:04:57;;;;;;;3.97;1.60;;;5.80;80.00;;;;;;4995379;28;20441;-76
2022/01/20 10:07:32;;;;;;;3.03;1.40;;;5.90;80.00;;;;;;4995579;28;20449;-77
2022/01/20 10:10:00;;;;;;;2.50;1.13;;;6.00;80.00;;;;;;4995638;28;20441;-76
2022/01/20 10:12:29;;;;;;;3.87;1.17;;;6.00;79.00;;;;;;4995354;28;20484;-76
2022/01/20 10:14:57;;;;;;;3.60;1.53;;;6.00;78.60;;;;;;4996926;28;20484;-76
2022/01/20 10:17:25;;;;;;;3.13;1.23;;;6.10;79.70;;;;;;4995485;28;20864;-77
2022/01/20 10:19:54;;;;;;;3.47;1.40;;;6.20;79.10;;;;;;4995442;28;20457;-77
2022/01/20 10:22:23;;;;;;;3.00;1.23;;;6.20;78.80;;;;;;4995472;28;20473;-77
2022/01/20 10:25:03;;;;;;;3.13;1.30;;;6.20;77.90;;;;;;4995281;28;20848;-77
2022/01/20 10:27:31;;;;;;;4.30;1.30;;;6.30;78.00;;;;;;4996406;28;20908;-77
2022/01/20 10:30:00;;;;;;;2.83;1.30;;;6.20;77.50;;;;;;4996751;28;20872;-76
2022/01/20 10:32:28;;;;;;;3.10;1.70;;;6.00;78.10;;;;;;4997629;28;20495;-77
2022/01/20 10:35:03;;;;;;;3.53;1.67;;;6.00;78.00;;;;;;4997249;28;20454;-77
2022/01/20 10:37:31;;;;;;;2.43;1.00;;;5.80;77.90;;;;;;4998391;28;20479;-77
2022/01/20 10:40:07;;;;;;;4.17;1.50;;;5.80;78.90;;;;;;4996442;28;20453;-76
2022/01/20 10:42:39;;;;;;;2.60;1.00;;;5.90;78.70;;;;;;5000008;28;20814;-77
2022/01/20 10:45:07;;;;;;;2.90;1.23;;;6.00;78.50;;;;;;4996760;28;20441;-78
2022/01/20 10:47:36;;;;;;;2.60;1.10;;;6.10;78.00;;;;;;4995011;28;20508;-77
2022/01/20 10:50:11;;;;;;;4.30;1.33;;;6.00;78.10;;;;;;4994684;28;20457;-77
2022/01/20 10:52:40;;;;;;;2.90;1.70;;;6.00;78.10;;;;;;4994708;28;20484;-77
2022/01/20 10:55:19;;;;;;;4.90;1.27;;;6.10;78.10;;;;;;4995188;28;20867;-77
2022/01/20 10:57:46;;;;;;;2.90;1.27;;;6.00;78.00;;;;;;4994664;28;20444;-77
2022/01/20 11:00:18;;;;;;;2.40;1.00;;;6.10;78.00;;;;;;4994661;28;20449;-76
2022/01/20 11:02:49;;;;;;;2.77;1.40;;;6.00;77.30;;;;;;4994326;28;20540;-77
2022/01/20 11:05:16;;;;;;;2.53;0.97;;;6.10;77.50;;;;;;4994539;28;20456;-77
2022/01/20 11:07:44;;;;;;;3.20;1.43;;;5.90;77.70;;;;;;4996566;28;20460;-75
2022/01/20 11:10:12;;;;;;;3.93;1.20;;;5.80;78.60;;;;;;4997510;28;20457;-78
2022/01/20 11:12:39;;;;;;;3.90;1.37;;;5.70;78.40;;;;;;4997743;28;20469;-77
2022/01/20 11:15:10;;;;;;;2.47;1.00;;;5.80;78.70;;;;;;4997263;28;20449;-78
2022/01/20 11:17:40;;;;;;;3.50;1.37;;;5.90;78.50;;;;;;4999748;28;20536;-77
2022/01/20 11:20:09;;;;;;;2.40;1.10;;;6.00;78.10;;;;;;4999719;28;20555;-77
2022/01/20 11:22:36;;;;;;;2.70;1.23;;;6.00;78.00;;;;;;4998876;28;20473;-77
2022/01/20 11:25:06;;;;;;;2.90;1.40;;;5.90;78.20;;;;;;4998899;28;20460;-77
2022/01/20 11:27:39;;;;;;;3.30;1.20;;;5.80;78.30;;;;;;4999667;28;20456;-77
2022/01/20 11:30:18;;;;;;;2.60;1.27;;;5.80;78.60;;;;;;4999472;28;20433;-77
2022/01/20 11:32:58;;;;;;;2.37;1.10;;;5.70;78.40;;;;;;4997904;28;20480;-77
2022/01/20 11:35:37;;;;;;;2.97;1.33;;;5.40;78.30;;;;;;4997733;28;20436;-76
2022/01/20 11:38:03;;;;;;;2.70;1.10;;;5.40;79.00;;;;;;4998147;28;20441;-76
2022/01/20 11:40:30;;;;;;;2.97;1.43;;;5.40;79.70;;;;;;4998445;28;20455;-77
2022/01/20 11:43:03;;;;;;;5.03;1.20;;;5.50;79.90;;;;;;4997390;28;20455;-77
2022/01/20 11:45:33;;;;;;;2.80;1.23;;;5.50;79.60;;;;;;4997476;28;20488;-77
2022/01/20 11:48:11;;;;;;;3.40;1.83;;;5.50;79.60;;;;;;4998884;28;20453;-78
2022/01/20 11:50:37;;;;;;;3.60;1.00;;;5.70;78.90;;;;;;5000596;28;20433;-77
2022/01/20 11:53:15;;;;;;;2.63;1.20;;;5.60;78.90;;;;;;5001931;28;20491;-77
2022/01/20 11:55:47;;;;;;;2.40;1.10;;;5.70;78.40;;;;;;5004157;28;20460;-77
2022/01/20 11:58:19;;;;;;;2.93;1.50;;;5.70;78.30;;;;;;5003008;28;20446;-77
2022/01/20 12:00:58;;;;;;;2.50;1.10;;;5.90;78.10;;;;;;5002627;28;20872;-77
2022/01/20 12:03:25;;;;;;;2.50;1.07;;;5.80;78.10;;;;;;5003909;28;20432;-78
2022/01/20 12:05:59;;;;;;;2.57;1.20;;;6.00;77.50;;;;;;5003033;28;20456;-77
2022/01/20 12:08:26;;;;;;;2.97;1.10;;;6.10;76.80;;;;;;5003050;28;20429;-77
2022/01/20 12:11:00;;;;;;;2.80;1.20;;;6.20;75.90;;;;;;5003570;28;20457;-77
2022/01/20 12:13:30;;;;;;;2.93;1.10;;;6.40;76.00;;;;;;5003064;28;20506;-78
2022/01/20 12:16:00;;;;;;;2.60;1.27;;;6.50;75.00;;;;;;5011025;28;20464;-78
2022/01/20 12:18:27;;;;;;;2.40;0.93;;;6.40;74.50;;;;;;5016693;28;20528;-77
2022/01/20 12:20:54;;;;;;;3.00;1.40;;;6.30;75.00;;;;;;5016454;28;20460;-76
2022/01/20 12:23:24;;;;;;;2.73;1.00;;;6.30;75.10;;;;;;5011717;28;20445;-78
2022/01/20 12:25:51;;;;;;;2.30;1.00;;;6.40;75.40;;;;;;5004000;28;20455;-78
2022/01/20 12:28:18;;;;;;;2.50;1.00;;;6.40;75.20;;;;;;5001743;28;20457;-77
2022/01/20 12:30:48;;;;;;;2.90;1.40;;;6.40;75.00;;;;;;5000791;28;20472;-77
2022/01/20 12:33:17;;;;;;;2.37;1.10;;;6.30;75.10;;;;;;5000929;28;20564;-77
2022/01/20 12:35:46;;;;;;;3.13;1.30;;;6.30;75.40;;;;;;5001312;28;20492;-77
2022/01/20 12:38:26;;;;;;;2.73;1.07;;;6.00;75.70;;;;;;5000910;28;20448;-76
2022/01/20 12:41:01;;;;;;;2.50;1.10;;;6.00;76.80;;;;;;5000502;28;20465;-76
2022/01/20 12:43:40;;;;;;;2.80;1.00;;;6.00;77.30;;;;;;5000238;28;20837;-77
2022/01/20 12:46:09;;;;;;;3.43;1.23;;;6.00;76.70;;;;;;4999683;28;20463;-78
2022/01/20 12:48:37;;;;;;;2.33;0.90;;;5.90;77.20;;;;;;5000201;28;20449;-77
2022/01/20 12:51:06;;;;;;;3.37;1.17;;;5.80;77.60;;;;;;4999496;28;20984;-77
2022/01/20 12:53:35;;;;;;;2.40;1.00;;;5.80;77.50;;;;;;4999131;28;20481;-76
2022/01/20 12:56:02;;;;;;;2.80;1.30;;;5.70;77.30;;;;;;4998248;28;20452;-77
2022/01/20 12:58:29;;;;;;;2.60;0.97;;;5.50;76.80;;;;;;4997111;28;20448;-78
2022/01/20 13:01:00;;;;;;;2.50;1.00;;;5.20;77.60;;;;;;4996579;28;20480;-77
2022/01/20 13:03:39;;;;;;;3.93;0.90;;;5.00;78.00;;;;;;4997135;28;20492;-78
2022/01/20 13:06:08;;;;;;;2.60;0.90;;;4.70;78.30;;;;;;4996664;28;20500;-78
2022/01/20 13:08:38;;;;;;;2.80;1.10;;;4.40;79.70;;;;;;4997056;28;20448;-78
2022/01/20 13:11:08;;;;;;;3.00;1.10;;;4.30;80.50;;;;;;4998329;28;20473;-77
2022/01/20 13:13:35;;;;;;;3.13;1.63;;;4.30;80.80;;;;;;4997819;28;20536;-77
2022/01/20 13:16:13;;;;;;;2.50;1.00;;;4.20;81.10;;;;;;4996552;28;20817;-77
2022/01/20 13:18:51;;;;;;;2.83;1.27;;;4.10;82.10;;;;;;4996398;28;20964;-77
2022/01/20 13:21:18;;;;;;;2.77;1.00;;;4.00;82.70;;;;;;4997200;28;20543;-77
2022/01/20 13:23:58;;;;;;;2.50;0.90;;;4.10;82.70;;;;;;4996600;28;21009;-77
2022/01/20 13:26:26;;;;;;;2.30;0.87;;;4.00;82.70;;;;;;4997646;28;20778;-77
2022/01/20 13:29:04;;;;;;;2.50;0.87;;;3.90;83.40;;;;;;4997339;28;20456;-77
2022/01/20 13:31:32;;;;;;;2.60;0.90;;;3.90;83.10;;;;;;4996796;28;20500;-77
2022/01/20 13:34:09;;;;;;;2.90;1.17;;;3.80;83.00;;;;;;4995791;28;20836;-77
2022/01/20 13:36:40;;;;;;;2.50;1.00;;;3.90;83.00;;;;;;4996271;28;20448;-77
2022/01/20 13:39:07;;;;;;;2.70;1.23;;;3.90;82.90;;;;;;4996457;28;20824;-76
2022/01/20 13:41:34;;;;;;;2.80;1.17;;;4.00;82.20;;;;;;4996046;28;20465;-77
2022/01/20 13:47:00;;;;;;;4.27;1.50;;;4.20;82.30;;;;;;4996241;28;20409;-76
2022/01/20 13:49:28;;;;;;;2.87;1.40;;;4.30;81.20;;;;;;4996452;28;20452;-76
2022/01/20 13:51:59;;;;;;;3.00;1.63;;;4.30;80.90;;;;;;4996650;28;20458;-77
2022/01/20 13:54:36;;;;;;;3.73;1.80;;;4.30;81.00;;;;;;4996537;28;20481;-77
2022/01/20 13:57:04;;;;;;;3.43;1.90;;;4.30;81.20;;;;;;4996811;28;20471;-76
2022/01/20 13:59:31;;;;;;;3.30;2.20;;;4.30;81.40;;;;;;4995949;28;20473;-77
2022/01/20 14:01:58;;;;;;;2.53;1.20;;;4.40;81.50;;;;;;4995606;28;20488;-78
2022/01/20 14:04:24;;;;;;;3.27;2.40;;;4.40;81.40;;;;;;4995606;28;20456;-77
2022/01/20 14:06:52;;;;;;;3.80;2.50;;;4.60;81.30;;;;;;4995470;28;20448;-77
2022/01/20 14:09:19;;;;;;;3.10;2.27;;;4.60;80.60;;;;;;4995572;28;20456;-77
2022/01/20 14:11:47;;;;;;;3.00;1.90;;;4.60;80.80;;;;;;4995446;28;20473;-77
2022/01/20 14:14:14;;;;;;;3.40;2.20;;;4.50;80.90;;;;;;4994821;28;21000;-77
2022/01/20 14:16:41;;;;;;;2.63;1.47;;;4.50;80.70;;;;;;4995142;28;20949;-77
2022/01/20 14:19:10;;;;;;;3.20;1.20;;;4.50;80.90;;;;;;4995170;28;20441;-77
2022/01/20 14:21:37;;;;;;;2.87;1.27;;;4.40;80.90;;;;;;4995223;28;20477;-77
2022/01/20 14:24:05;;;;;;;3.17;1.70;;;4.40;81.00;;;;;;4995226;28;20452;-77
2022/01/20 14:26:35;;;;;;;3.63;1.80;;;4.40;81.30;;;;;;4995722;28;20449;-77
2022/01/20 14:29:01;;;;;;;2.83;1.00;;;4.40;81.40;;;;;;4995043;28;20461;-77
2022/01/20 14:31:28;;;;;;;2.80;1.07;;;4.30;81.10;;;;;;4995198;28;20593;-77
2022/01/20 14:33:55;;;;;;;2.80;1.70;;;4.10;81.00;;;;;;4995082;28;20488;-77
2022/01/20 14:36:21;;;;;;;3.00;1.40;;;4.10;82.10;;;;;;4995000;28;20460;-77
2022/01/20 14:38:48;;;;;;;3.53;2.20;;;4.20;82.20;;;;;;4994757;28;20974;-77
2022/01/20 14:41:16;;;;;;;3.27;1.40;;;4.20;81.40;;;;;;4994814;28;20469;-77
2022/01/20 14:43:43;;;;;;;3.33;1.50;;;4.30;81.60;;;;;;4994933;28;20457;-76
2022/01/20 14:46:10;;;;;;;2.90;1.20;;;4.30;81.30;;;;;;4994536;28;20953;-77
2022/01/20 14:48:38;;;;;;;5.93;1.50;;;4.30;81.40;;;;;;4994865;28;20453;-76
2022/01/20 14:51:08;;;;;;;3.37;1.37;;;4.50;81.50;;;;;;4995110;28;20477;-77
2022/01/20 14:53:35;;;;;;;3.57;1.47;;;4.70;80.60;;;;;;4995768;28;20480;-77
2022/01/20 14:56:02;;;;;;;4.10;1.40;;;4.60;80.00;;;;;;4995427;28;20460;-77
2022/01/20 14:58:30;;;;;;;3.70;1.43;;;4.70;80.10;;;;;;4995760;28;20460;-77
2022/01/20 15:00:57;;;;;;;3.60;1.77;;;4.60;79.70;;;;;;4995089;28;20473;-76
2022/01/20 15:03:24;;;;;;;3.90;1.50;;;4.60;80.10;;;;;;4994767;28;20441;-76
2022/01/20 15:05:51;;;;;;;3.20;1.70;;;4.60;79.90;;;;;;4994174;28;20842;-77
2022/01/20 15:08:18;;;;;;;3.17;1.30;;;4.60;79.80;;;;;;4994633;28;20945;-76
2022/01/20 15:10:44;;;;;;;2.97;1.40;;;4.70;79.60;;;;;;4995160;28;20984;-76
2022/01/20 15:13:11;;;;;;;2.50;0.90;;;4.70;79.60;;;;;;4996035;28;20465;-76
2022/01/20 15:15:39;;;;;;;2.83;1.20;;;4.60;79.40;;;;;;4994862;28;20485;-77
2022/01/20 15:18:06;;;;;;;3.37;1.20;;;4.50;79.70;;;;;;4995941;28;20445;-77
2022/01/20 15:20:33;;;;;;;2.80;1.50;;;4.40;79.90;;;;;;4995386;28;20468;-77
2022/01/20 15:23:00;;;;;;;4.07;1.23;;;4.40;80.00;;;;;;4994594;28;20495;-78
2022/01/20 15:25:28;;;;;;;3.23;1.40;;;4.30;80.40;;;;;;4994196;28;20449;-78
2022/01/20 15:27:55;;;;;;;3.00;1.00;;;4.40;80.30;;;;;;4994453;28;20468;-77
2022/01/20 15:30:22;;;;;;;3.57;1.30;;;4.40;79.30;;;;;;4994475;28;20452;-77
2022/01/20 15:32:50;;;;;;;3.30;1.40;;;4.30;79.70;;;;;;4994320;28;20508;-77
2022/01/20 15:35:17;;;;;;;2.80;1.23;;;4.40;79.60;;;;;;4994237;28;20488;-77
2022/01/20 15:37:43;;;;;;;2.70;1.30;;;4.40;79.40;;;;;;4993725;28;20806;-77
2022/01/20 15:40:12;;;;;;;3.83;1.33;;;4.50;79.50;;;;;;4994256;28;20472;-77
2022/01/20 15:42:39;;;;;;;2.87;1.57;;;4.40;79.30;;;;;;4994304;28;20469;-77
2022/01/20 15:45:07;;;;;;;4.00;1.50;;;4.30;79.00;;;;;;4993946;28;20442;-77
2022/01/20 15:47:34;;;;;;;2.80;1.40;;;4.20;78.50;;;;;;4994416;28;20636;-77
2022/01/20 15:50:03;;;;;;;3.27;1.40;;;4.20;78.60;;;;;;4994474;28;20949;-77
2022/01/20 15:52:29;;;;;;;3.30;1.60;;;4.10;78.50;;;;;;4993835;28;20881;-76
2022/01/20 15:54:56;;;;;;;2.47;1.10;;;4.00;78.50;;;;;;4993919;28;20521;-77
2022/01/20 15:57:23;;;;;;;2.70;1.00;;;4.10;78.30;;;;;;4993627;28;20949;-77
2022/01/20 15:59:49;;;;;;;2.80;1.30;;;4.00;77.60;;;;;;4993935;28;20496;-75
2022/01/20 16:02:16;;;;;;;6.33;1.70;;;4.00;77.80;;;;;;4993403;28;20493;-76
2022/01/20 16:04:43;;;;;;;2.60;1.10;;;3.90;77.60;;;;;;4994129;28;20453;-77
2022/01/20 16:07:11;;;;;;;2.80;1.00;;;3.80;77.60;;;;;;4995964;28;20460;-77
2022/01/20 16:09:38;;;;;;;3.00;1.00;;;3.80;77.60;;;;;;4995781;28;20456;-77
2022/01/20 16:12:06;;;;;;;3.00;1.00;;;3.80;77.50;;;;;;4995569;28;20453;-77
2022/01/20 16:14:33;;;;;;;2.80;1.10;;;3.70;77.60;;;;;;4996265;28;20484;-77
2022/01/20 16:17:01;;;;;;;2.40;0.90;;;3.50;77.40;;;;;;4995948;28;20449;-77
2022/01/20 16:19:28;;;;;;;2.53;1.10;;;3.40;77.40;;;;;;4996510;28;20457;-78
2022/01/20 16:21:56;;;;;;;3.27;1.10;;;3.50;77.30;;;;;;4995977;28;21007;-74
2022/01/20 16:24:24;;;;;;;2.70;1.30;;;3.40;77.50;;;;;;4995511;28;20445;-77
2022/01/20 16:26:51;;;;;;;3.80;1.77;;;3.40;77.40;;;;;;4998111;28;20445;-77
2022/01/20 16:29:19;;;;;;;3.20;1.20;;;3.40;77.10;;;;;;4997063;28;20454;-77
2022/01/20 16:31:47;;;;;;;3.30;1.50;;;3.30;76.50;;;;;;4998800;28;20892;-78
2022/01/20 16:34:14;;;;;;;3.83;1.60;;;3.30;76.70;;;;;;4996672;28;20940;-77
2022/01/20 16:36:41;;;;;;;3.07;1.00;;;3.20;76.20;;;;;;4998645;28;20470;-77
2022/01/20 16:39:08;;;;;;;2.87;1.00;;;3.20;75.80;;;;;;5001051;28;20445;-77
2022/01/20 16:41:36;;;;;;;2.70;1.10;;;3.10;75.90;;;;;;5000814;28;20468;-77
2022/01/20 16:44:03;;;;;;;7.60;1.10;;;3.10;75.50;;;;;;5000211;28;20876;-76
2022/01/20 16:46:30;;;;;;;2.97;1.17;;;3.10;75.40;;;;;;5000537;28;20437;-77
2022/01/20 16:48:58;;;;;;;2.80;1.00;;;3.20;75.20;;;;;;5001514;28;20512;-77
2022/01/20 16:51:26;;;;;;;3.17;0.90;;;3.30;74.50;;;;;;5001977;28;20477;-77
2022/01/20 16:53:52;;;;;;;3.47;1.53;;;3.40;74.70;;;;;;5001706;28;20461;-77
2022/01/20 16:56:19;;;;;;;3.27;1.20;;;3.50;74.00;;;;;;5000910;28;20485;-76
2022/01/20 16:58:47;;;;;;;2.70;1.10;;;3.40;73.30;;;;;;4999981;28;20507;-77
2022/01/20 17:01:14;;;;;;;3.80;2.13;;;3.50;73.70;;;;;;4999732;28;20477;-77
2022/01/20 17:03:41;;;;;;;3.83;1.97;;;3.50;73.30;;;;;;4999781;28;20485;-77
2022/01/20 17:06:08;;;;;;;4.00;1.77;;;3.60;73.00;;;;;;4999061;28;20452;-77
2022/01/20 17:08:35;;;;;;;3.20;1.93;;;3.70;72.90;;;;;;4999120;28;20456;-77
2022/01/20 17:11:02;;;;;;;3.40;1.70;;;3.70;72.80;;;;;;4998967;28;20473;-77
2022/01/20 17:13:29;;;;;;;3.00;1.27;;;3.60;72.80;;;;;;4998503;28;20449;-77
2022/01/20 17:15:57;;;;;;;2.80;1.20;;;3.60;73.30;;;;;;4998620;28;20480;-77
2022/01/20 17:18:25;;;;;;;4.00;1.40;;;3.70;73.30;;;;;;4998768;28;20457;-78
2022/01/20 17:20:54;;;;;;;2.70;1.13;;;3.80;73.40;;;;;;4998550;28;20920;-77